ADDS METAR Data INFO
IDs: Format: Raw Decoded Include TAF

Data at: 2235 UTC 11 Dec 2017

KART 112156Z AUTO 00000KT 10SM OVC110 M07/M12 A3001 RMK AO2 SLP171 T10721122
KART 112056Z AUTO 15003KT 10SM OVC046 M07/M14 A3002 RMK AO2 SLP173 T10671139 56006
KART 111956Z AUTO 17003KT 10SM BKN043 M07/M14 A3002 RMK AO2 SLP173 T10671139
KART 111856Z AUTO 00000KT 10SM CLR M07/M14 A3002 RMK AO2 SLP174 T10671144
KART 111756Z AUTO 00000KT 10SM SCT048 M06/M14 A3004 RMK AO2 SLP178 T10611139 11061 21089 58007
KART 111656Z AUTO 33005KT 10SM OVC050 M07/M13 A3004 RMK AO2 SLP181 T10721133
KART 111556Z AUTO 00000KT 10SM SCT050 M07/M12 A3006 RMK AO2 SLP186 T10721122
KART 111456Z AUTO 03005KT 10SM OVC055 M08/M12 A3006 RMK AO2 SLP185 T10781117 53020
KART 111356Z AUTO 03006KT 10SM OVC055 M08/M12 A3004 RMK AO2 SLP179 T10831117
KART 111256Z AUTO 03005KT 10SM SCT039 BKN045 BKN060 M08/M11 A3001 RMK AO2 SLP170 T10831111
KART 111156Z AUTO 01007KT 10SM BKN038 BKN050 OVC070 M07/M09 A3000 RMK AO2 SNE1058 SLP164 P0000 60000 T10721094 11017 21072 53027
KART 111056Z AUTO 02006KT 7SM -SN SCT035 OVC045 M07/M09 A2997 RMK AO2 SNB07 SLP155 P0000 T10671089
KART 111049Z AUTO 01006KT 3SM -SN BR SCT035 OVC045 M07/M09 A2997 RMK AO2 SNB07 P0000 T10671089
KART 111025Z AUTO 36011KT 1 3/4SM -SN BR FEW013 FEW035 OVC044 M07/M08 A2996 RMK AO2 SNB07 P0000 T10671083
KART 110956Z AUTO 01007KT 10SM OVC043 M06/M08 A2994 RMK AO2 SLP143 T10561078
KART 110856Z AUTO 36009KT 7SM OVC039 M04/M07 A2991 RMK AO2 SLP136 T10441072 53024
KART 110756Z AUTO 29008KT 10SM OVC041 M03/M08 A2989 RMK AO2 SLP128 T10281078
KART 110656Z AUTO 31008KT 10SM OVC040 M02/M07 A2986 RMK AO2 SLP119 T10221067
KART 110556Z AUTO 31008KT 10SM SCT025 BKN045 OVC060 M02/M05 A2984 RMK AO2 SNE09 SLP112 P0000 60000 T10171050 10006 21017 51005
KART 110525Z AUTO 29006KT 8SM BKN025 OVC035 M01/M04 A2984 RMK AO2 SNE09 P0000 T10111044
KART 110510Z AUTO 28012G16KT 9SM FEW023 OVC030 M01/M04 A2984 RMK AO2 SNE09 P0000 T10111044
KART 110459Z AUTO 28010KT 3SM -SN BR BKN023 OVC030 M01/M03 A2984 RMK AO2 P0000 T10111033
KART 110456Z AUTO 27009G17KT 1 3/4SM -SN BR BKN021 OVC033 M01/M03 A2984 RMK AO2 LTG DSNT SE SLP110 P0000 T10111033 400061067
KART 110448Z AUTO 28013G19KT 1 3/4SM -SN BR BKN020 OVC035 M01/M03 A2984 RMK AO2 VIS 1V4 LTG DSNT SE P0000 T10111033
KART 110440Z AUTO 27010KT 3SM -SN BR BKN022 BKN030 OVC035 M01/M03 A2984 RMK AO2 P0000 T10111033
KART 110433Z AUTO 27011G19KT 1 3/4SM -SN BR SCT013 BKN022 OVC034 M01/M03 A2984 RMK AO2 P0000 T10111033
KART 110424Z AUTO 28013G19KT 2SM -SN BR SCT011 SCT017 OVC023 M01/M03 A2984 RMK AO2 VIS 1 1/2V3 P0000 T10061028
KART 110416Z AUTO 27011KT 1/2SM -SN FZFG SCT010 BKN019 OVC027 M01/M02 A2983 RMK AO2 P0000 T10111022
KART 110408Z AUTO 27014G19KT 1/4SM +SN FZFG BKN012 BKN018 OVC025 M01/M03 A2983 RMK AO2 P0000 T10111028
KART 110405Z AUTO 28013G19KT 3/4SM -SN BR BKN014 OVC022 M01/M03 A2983 RMK AO2 VIS 1/4V3 P0000 T10111028
KART 110356Z AUTO 27010G24KT 1 3/4SM -SN BKN023 OVC028 00/M04 A2983 RMK AO2 SNB11 SLP106 P0000 T00001039
KART 110354Z AUTO 27014G24KT 1 3/4SM -SN OVC027 00/M04 A2983 RMK AO2 SNB11 P0000
KART 110340Z AUTO 27015G23KT 3SM -SN OVC027 00/M04 A2982 RMK AO2 SNB11 P0000 T00001039
KART 110328Z AUTO 26015G21KT 3SM -SN BKN030 BKN046 00/M03 A2982 RMK AO2 SNB11 P0000 T00001028
KART 110311Z AUTO 26016G25KT 1 3/4SM -SN BKN039 BKN047 OVC060 00/M04 A2982 RMK AO2 SNB11 P0000 T00001039
KART 110256Z AUTO 26015KT 10SM FEW040 OVC050 01/M04 A2981 RMK AO2 SLP101 T00061044 52002
KART 110156Z AUTO 26014G21KT 10SM BKN047 OVC080 01/M04 A2981 RMK AO2 SLP100 T00061044
KART 110056Z AUTO 26015KT 10SM FEW037 OVC060 00/M04 A2981 RMK AO2 SLP100 T00001044
KART 102356Z AUTO 26016G24KT 10SM FEW027 BKN035 OVC090 M01/M04 A2981 RMK AO2 SNB24E33 SLP099 P0000 60000 T10061039 10000 21022 53005
KART 102256Z AUTO 26013KT 9SM SCT026 BKN043 OVC075 M01/M04 A2981 RMK AO2 SNB39E48 SLP099 P0000 T10061039
KART 102156Z AUTO 26016G25KT 8SM FEW039 OVC047 M01/M04 A2979 RMK AO2 SNE35 SLP095 P0000 T10061044
KART 102138Z AUTO 26014G22KT 6SM HZ FEW028 OVC035 M01/M04 A2979 RMK AO2 SNE35 P0000 T10061044
KART 102130Z AUTO 25011G21KT 2SM -SN BKN030 OVC036 M01/M04 A2979 RMK AO2 P0000 T10111039
KART 102119Z AUTO 25010KT 1/2SM -SN FZFG BKN022 OVC034 M01/M03 A2979 RMK AO2 P0000 T10111033
KART 102056Z AUTO 25013G20KT 1SM -SN OVC028 M01/M04 A2979 RMK AO2 SNB41 SLP095 P0000 60000 T10111044 55001
KART 102044Z AUTO 25013KT 1 3/4SM -SN FEW025 OVC033 M01/M04 A2979 RMK AO2 SNB41 P0000 T10111044
KART 101956Z AUTO 26013KT 10SM FEW028 BKN050 OVC080 M01/M06 A2979 RMK AO2 SLP093 T10111056
KART 101856Z AUTO 27017G23KT 10SM FEW032 BKN050 OVC065 M01/M06 A2979 RMK AO2 SNB00E10 SLP093 P0000 T10111061
KART 101756Z AUTO 28011KT 8SM FEW027 BKN032 OVC050 M02/M06 A2980 RMK AO2 SNE07 SLP096 P0000 60000 T10171061 11006 21022 53004 $
KART 101706Z AUTO 29010KT 5SM -SN FEW025 BKN033 OVC044 M02/M06 A2979 RMK AO2 P0000 T10221056 $
KART 101656Z AUTO 30009KT 4SM -SN BKN028 OVC037 M02/M06 A2979 RMK AO2 SNB21 SLP094 P0000 T10221056 $
KART 101634Z AUTO 30010KT 2 1/2SM -SN BKN028 OVC039 M02/M06 A2979 RMK AO2 VIS 2V4 SNB21 P0000 T10221056 $
KART 101556Z AUTO 32014KT 8SM SCT029 BKN036 OVC045 M01/M06 A2979 RMK AO2 SNB40E46 SLP092 P0000 T10111056 $
KART 101456Z AUTO 28009KT 10SM BKN038 OVC070 M01/M07 A2979 RMK AO2 SLP094 60000 T10111072 51023 $
KART 101356Z AUTO 29008KT 10SM FEW031 SCT044 BKN080 M02/M07 A2979 RMK AO2 SLP092 T10171067 $
KART 101256Z AUTO 29015G21KT 10SM FEW019 OVC080 M01/M06 A2976 RMK AO2 SNB1159E17 SLP082 P0000 T10111056 $
KART 101247Z AUTO 29015G22KT 10SM SCT019 SCT025 OVC085 M01/M05 A2975 RMK AO2 SNB1159E17 P0000 T10111050 $
KART 101220Z AUTO 28014KT 6SM BR SCT016 BKN024 OVC085 M01/M03 A2973 RMK AO2 SNB1159E17 P0000 T10061028 $
KART 101210Z AUTO 28010KT 2 1/2SM -SN BR FEW015 BKN022 OVC090 M01/M02 A2973 RMK AO2 SNB1159 P0000 T10061022 $
KART 101156Z AUTO 28012KT 5SM BR SCT017 BKN022 OVC029 M01/M02 A2972 RMK AO2 SNB13E42 SLP070 P0000 60002 70002 I6000 T10061022 11006 21067 53007 $
KART 101138Z AUTO 27007KT 3SM -SN BR SCT017 BKN022 OVC027 M01/M03 A2972 RMK AO2 SNB13 P0000 T10111028 $
KART 101124Z AUTO 00000KT 1 3/4SM -SN BR OVC024 M03/M04 A2971 RMK AO2 SNB13 P0000 T10331039 $
KART 101056Z AUTO 00000KT 5SM BR BKN027 BKN034 OVC046 M04/M04 A2971 RMK AO2 SLP067 I1000 T10441044 $